sensor_id;sensor_type;location;lat;lon;timestamp;temperature;humidity
16663;DHT22;8445;51.270;9.434;2024-01-06T00:02:24;6.00;72.10
16663;DHT22;8445;51.270;9.434;2024-01-06T00:04:51;6.00;72.20
16663;DHT22;8445;51.270;9.434;2024-01-06T00:07:17;6.00;72.20
16663;DHT22;8445;51.270;9.434;2024-01-06T00:09:43;6.00;72.20
16663;DHT22;8445;51.270;9.434;2024-01-06T00:12:09;6.00;72.30
16663;DHT22;8445;51.270;9.434;2024-01-06T00:14:35;6.00;72.40
16663;DHT22;8445;51.270;9.434;2024-01-06T00:17:01;6.00;72.50
16663;DHT22;8445;51.270;9.434;2024-01-06T00:19:27;6.00;72.50
16663;DHT22;8445;51.270;9.434;2024-01-06T00:21:53;6.00;72.40
16663;DHT22;8445;51.270;9.434;2024-01-06T00:24:20;6.00;72.40
16663;DHT22;8445;51.270;9.434;2024-01-06T00:26:46;6.00;72.40
16663;DHT22;8445;51.270;9.434;2024-01-06T00:29:12;6.00;72.50
16663;DHT22;8445;51.270;9.434;2024-01-06T00:31:38;6.00;72.50
16663;DHT22;8445;51.270;9.434;2024-01-06T00:34:04;6.00;72.50
16663;DHT22;8445;51.270;9.434;2024-01-06T00:36:30;6.00;72.50
16663;DHT22;8445;51.270;9.434;2024-01-06T00:38:58;6.00;72.50
16663;DHT22;8445;51.270;9.434;2024-01-06T00:41:24;5.90;72.40
16663;DHT22;8445;51.270;9.434;2024-01-06T00:43:50;5.90;72.50
16663;DHT22;8445;51.270;9.434;2024-01-06T00:46:16;5.90;72.50
16663;DHT22;8445;51.270;9.434;2024-01-06T00:48:42;5.90;72.50
16663;DHT22;8445;51.270;9.434;2024-01-06T00:51:07;5.90;72.50
16663;DHT22;8445;51.270;9.434;2024-01-06T00:53:34;5.90;72.60
16663;DHT22;8445;51.270;9.434;2024-01-06T00:56:00;5.90;72.70
16663;DHT22;8445;51.270;9.434;2024-01-06T00:58:26;5.90;72.70
16663;DHT22;8445;51.270;9.434;2024-01-06T01:00:52;5.90;72.50
16663;DHT22;8445;51.270;9.434;2024-01-06T01:03:18;5.80;72.50
16663;DHT22;8445;51.270;9.434;2024-01-06T01:05:44;5.80;72.50
16663;DHT22;8445;51.270;9.434;2024-01-06T01:08:10;5.70;72.60
16663;DHT22;8445;51.270;9.434;2024-01-06T01:10:36;5.60;72.60
16663;DHT22;8445;51.270;9.434;2024-01-06T01:13:02;5.60;72.70
16663;DHT22;8445;51.270;9.434;2024-01-06T01:15:30;5.50;72.80
16663;DHT22;8445;51.270;9.434;2024-01-06T01:17:56;5.50;72.90
16663;DHT22;8445;51.270;9.434;2024-01-06T01:20:22;5.40;73.00
16663;DHT22;8445;51.270;9.434;2024-01-06T01:22:51;5.30;73.00
16663;DHT22;8445;51.270;9.434;2024-01-06T01:25:19;5.30;73.00
16663;DHT22;8445;51.270;9.434;2024-01-06T01:27:45;5.30;72.90
16663;DHT22;8445;51.270;9.434;2024-01-06T01:30:11;5.30;73.00
16663;DHT22;8445;51.270;9.434;2024-01-06T01:32:37;5.20;73.00
16663;DHT22;8445;51.270;9.434;2024-01-06T01:35:03;5.10;73.00
16663;DHT22;8445;51.270;9.434;2024-01-06T01:37:29;5.10;73.20
16663;DHT22;8445;51.270;9.434;2024-01-06T01:39:55;5.00;73.20
16663;DHT22;8445;51.270;9.434;2024-01-06T01:42:21;5.00;73.20
16663;DHT22;8445;51.270;9.434;2024-01-06T01:44:47;5.00;73.20
16663;DHT22;8445;51.270;9.434;2024-01-06T01:47:13;4.90;73.30
16663;DHT22;8445;51.270;9.434;2024-01-06T01:49:47;4.90;73.30
16663;DHT22;8445;51.270;9.434;2024-01-06T01:52:14;4.90;73.40
16663;DHT22;8445;51.270;9.434;2024-01-06T01:54:42;4.70;73.60
16663;DHT22;8445;51.270;9.434;2024-01-06T01:57:11;4.70;73.80
16663;DHT22;8445;51.270;9.434;2024-01-06T01:59:39;4.60;73.70
16663;DHT22;8445;51.270;9.434;2024-01-06T02:02:06;4.50;73.80
16663;DHT22;8445;51.270;9.434;2024-01-06T02:04:33;4.50;74.10
16663;DHT22;8445;51.270;9.434;2024-01-06T02:07:04;4.40;74.20
16663;DHT22;8445;51.270;9.434;2024-01-06T02:09:30;4.40;74.20
16663;DHT22;8445;51.270;9.434;2024-01-06T02:11:59;4.30;74.20
16663;DHT22;8445;51.270;9.434;2024-01-06T02:14:25;4.30;74.40
16663;DHT22;8445;51.270;9.434;2024-01-06T02:16:51;4.30;74.70
16663;DHT22;8445;51.270;9.434;2024-01-06T02:19:17;4.20;75.00
16663;DHT22;8445;51.270;9.434;2024-01-06T02:21:47;4.20;74.90
16663;DHT22;8445;51.270;9.434;2024-01-06T02:24:14;4.10;74.90
16663;DHT22;8445;51.270;9.434;2024-01-06T02:26:40;4.10;75.00
16663;DHT22;8445;51.270;9.434;2024-01-06T02:29:06;4.00;75.20
16663;DHT22;8445;51.270;9.434;2024-01-06T02:31:32;4.00;75.40
16663;DHT22;8445;51.270;9.434;2024-01-06T02:33:58;4.00;75.80
16663;DHT22;8445;51.270;9.434;2024-01-06T02:36:23;4.00;75.80
16663;DHT22;8445;51.270;9.434;2024-01-06T02:38:49;4.10;75.90
16663;DHT22;8445;51.270;9.434;2024-01-06T02:41:15;4.10;76.10
16663;DHT22;8445;51.270;9.434;2024-01-06T02:43:43;4.20;76.40
16663;DHT22;8445;51.270;9.434;2024-01-06T02:46:09;4.20;76.50
16663;DHT22;8445;51.270;9.434;2024-01-06T02:48:35;4.30;76.50
16663;DHT22;8445;51.270;9.434;2024-01-06T02:51:01;4.40;76.50
16663;DHT22;8445;51.270;9.434;2024-01-06T02:53:27;4.40;76.60
16663;DHT22;8445;51.270;9.434;2024-01-06T02:55:53;4.50;76.60
16663;DHT22;8445;51.270;9.434;2024-01-06T02:58:19;4.50;76.50
16663;DHT22;8445;51.270;9.434;2024-01-06T03:00:45;4.60;76.70
16663;DHT22;8445;51.270;9.434;2024-01-06T03:03:11;4.70;76.70
16663;DHT22;8445;51.270;9.434;2024-01-06T03:05:39;4.70;76.70
16663;DHT22;8445;51.270;9.434;2024-01-06T03:08:05;4.70;76.70
16663;DHT22;8445;51.270;9.434;2024-01-06T03:10:31;4.90;76.70
16663;DHT22;8445;51.270;9.434;2024-01-06T03:12:57;4.90;76.60
16663;DHT22;8445;51.270;9.434;2024-01-06T03:15:23;5.00;76.50
16663;DHT22;8445;51.270;9.434;2024-01-06T03:17:51;5.00;76.50
16663;DHT22;8445;51.270;9.434;2024-01-06T03:20:17;5.00;76.50
16663;DHT22;8445;51.270;9.434;2024-01-06T03:22:43;5.00;76.50
16663;DHT22;8445;51.270;9.434;2024-01-06T03:25:09;5.10;76.40
16663;DHT22;8445;51.270;9.434;2024-01-06T03:27:34;5.10;76.30
16663;DHT22;8445;51.270;9.434;2024-01-06T03:30:00;5.10;76.20
16663;DHT22;8445;51.270;9.434;2024-01-06T03:32:28;5.20;76.20
16663;DHT22;8445;51.270;9.434;2024-01-06T03:34:55;5.30;76.20
16663;DHT22;8445;51.270;9.434;2024-01-06T03:37:21;5.30;76.20
16663;DHT22;8445;51.270;9.434;2024-01-06T03:39:47;5.30;76.10
16663;DHT22;8445;51.270;9.434;2024-01-06T03:42:15;5.30;76.00
16663;DHT22;8445;51.270;9.434;2024-01-06T03:44:44;5.30;76.10
16663;DHT22;8445;51.270;9.434;2024-01-06T03:47:10;5.30;76.00
16663;DHT22;8445;51.270;9.434;2024-01-06T03:49:36;5.30;76.00
16663;DHT22;8445;51.270;9.434;2024-01-06T03:52:01;5.30;76.00
16663;DHT22;8445;51.270;9.434;2024-01-06T03:54:28;5.40;76.00
16663;DHT22;8445;51.270;9.434;2024-01-06T03:56:54;5.40;75.90
16663;DHT22;8445;51.270;9.434;2024-01-06T03:59:23;5.50;75.90
16663;DHT22;8445;51.270;9.434;2024-01-06T04:01:49;5.50;75.80
16663;DHT22;8445;51.270;9.434;2024-01-06T04:04:15;5.40;75.90
16663;DHT22;8445;51.270;9.434;2024-01-06T04:06:41;5.40;76.00
16663;DHT22;8445;51.270;9.434;2024-01-06T04:09:10;5.40;76.00
16663;DHT22;8445;51.270;9.434;2024-01-06T04:11:36;5.40;75.90
16663;DHT22;8445;51.270;9.434;2024-01-06T04:14:02;5.40;75.90
16663;DHT22;8445;51.270;9.434;2024-01-06T04:16:28;5.40;75.90
16663;DHT22;8445;51.270;9.434;2024-01-06T04:18:55;5.40;75.90
16663;DHT22;8445;51.270;9.434;2024-01-06T04:21:21;5.40;75.90
16663;DHT22;8445;51.270;9.434;2024-01-06T04:23:47;5.40;75.90
16663;DHT22;8445;51.270;9.434;2024-01-06T04:26:13;5.40;75.90
16663;DHT22;8445;51.270;9.434;2024-01-06T04:28:40;5.50;75.90
16663;DHT22;8445;51.270;9.434;2024-01-06T04:31:10;5.50;75.90
16663;DHT22;8445;51.270;9.434;2024-01-06T04:33:37;5.50;75.90
16663;DHT22;8445;51.270;9.434;2024-01-06T04:36:03;5.40;75.90
16663;DHT22;8445;51.270;9.434;2024-01-06T04:38:30;5.50;75.90
16663;DHT22;8445;51.270;9.434;2024-01-06T04:40:56;5.40;75.80
16663;DHT22;8445;51.270;9.434;2024-01-06T04:43:22;5.40;75.80
16663;DHT22;8445;51.270;9.434;2024-01-06T04:45:48;5.40;75.80
16663;DHT22;8445;51.270;9.434;2024-01-06T04:48:16;5.30;75.70
16663;DHT22;8445;51.270;9.434;2024-01-06T04:50:42;5.30;75.90
16663;DHT22;8445;51.270;9.434;2024-01-06T04:53:09;5.30;76.00
16663;DHT22;8445;51.270;9.434;2024-01-06T04:55:35;5.30;75.90
16663;DHT22;8445;51.270;9.434;2024-01-06T04:58:00;5.30;76.00
16663;DHT22;8445;51.270;9.434;2024-01-06T05:00:26;5.30;76.10
16663;DHT22;8445;51.270;9.434;2024-01-06T05:02:52;5.30;76.20
16663;DHT22;8445;51.270;9.434;2024-01-06T05:05:18;5.30;76.20
16663;DHT22;8445;51.270;9.434;2024-01-06T05:07:44;5.30;76.20
16663;DHT22;8445;51.270;9.434;2024-01-06T05:10:10;5.30;76.20
16663;DHT22;8445;51.270;9.434;2024-01-06T05:12:38;5.30;76.20
16663;DHT22;8445;51.270;9.434;2024-01-06T05:15:04;5.30;76.20
16663;DHT22;8445;51.270;9.434;2024-01-06T05:17:30;5.30;76.20
16663;DHT22;8445;51.270;9.434;2024-01-06T05:19:56;5.30;76.20
16663;DHT22;8445;51.270;9.434;2024-01-06T05:22:22;5.30;76.30
16663;DHT22;8445;51.270;9.434;2024-01-06T05:24:48;5.30;76.40
16663;DHT22;8445;51.270;9.434;2024-01-06T05:27:17;5.30;76.50
16663;DHT22;8445;51.270;9.434;2024-01-06T05:29:43;5.30;76.50
16663;DHT22;8445;51.270;9.434;2024-01-06T05:32:09;5.30;76.40
16663;DHT22;8445;51.270;9.434;2024-01-06T05:34:35;5.30;76.40
16663;DHT22;8445;51.270;9.434;2024-01-06T05:37:00;5.30;76.40
16663;DHT22;8445;51.270;9.434;2024-01-06T05:39:27;5.30;76.40
16663;DHT22;8445;51.270;9.434;2024-01-06T05:41:53;5.30;76.40
16663;DHT22;8445;51.270;9.434;2024-01-06T05:44:19;5.30;76.60
16663;DHT22;8445;51.270;9.434;2024-01-06T05:46:45;5.30;76.50
16663;DHT22;8445;51.270;9.434;2024-01-06T05:49:11;5.30;76.50
16663;DHT22;8445;51.270;9.434;2024-01-06T05:51:37;5.30;76.50
16663;DHT22;8445;51.270;9.434;2024-01-06T05:54:03;5.30;76.50
16663;DHT22;8445;51.270;9.434;2024-01-06T05:56:29;5.30;76.50
16663;DHT22;8445;51.270;9.434;2024-01-06T05:58:55;5.30;76.50
16663;DHT22;8445;51.270;9.434;2024-01-06T06:01:21;5.30;76.40
16663;DHT22;8445;51.270;9.434;2024-01-06T06:03:47;5.30;76.50
16663;DHT22;8445;51.270;9.434;2024-01-06T06:06:15;5.20;76.50
16663;DHT22;8445;51.270;9.434;2024-01-06T06:08:42;5.30;76.60
16663;DHT22;8445;51.270;9.434;2024-01-06T06:11:08;5.30;76.60
16663;DHT22;8445;51.270;9.434;2024-01-06T06:13:38;5.30;76.60
16663;DHT22;8445;51.270;9.434;2024-01-06T06:16:09;5.20;76.60
16663;DHT22;8445;51.270;9.434;2024-01-06T06:18:38;5.30;76.70
16663;DHT22;8445;51.270;9.434;2024-01-06T06:21:05;5.30;76.70
16663;DHT22;8445;51.270;9.434;2024-01-06T06:23:31;5.30;76.70
16663;DHT22;8445;51.270;9.434;2024-01-06T06:25:58;5.30;76.70
16663;DHT22;8445;51.270;9.434;2024-01-06T06:28:25;5.30;76.70
16663;DHT22;8445;51.270;9.434;2024-01-06T06:30:51;5.30;76.80
16663;DHT22;8445;51.270;9.434;2024-01-06T06:33:20;5.30;76.80
16663;DHT22;8445;51.270;9.434;2024-01-06T06:35:46;5.30;76.80
16663;DHT22;8445;51.270;9.434;2024-01-06T06:38:12;5.30;76.80
16663;DHT22;8445;51.270;9.434;2024-01-06T06:40:38;5.30;76.80
16663;DHT22;8445;51.270;9.434;2024-01-06T06:43:04;5.30;76.80
16663;DHT22;8445;51.270;9.434;2024-01-06T06:45:30;5.30;76.90
16663;DHT22;8445;51.270;9.434;2024-01-06T06:47:56;5.30;77.00
16663;DHT22;8445;51.270;9.434;2024-01-06T06:50:22;5.30;77.10
16663;DHT22;8445;51.270;9.434;2024-01-06T06:52:48;5.30;77.00
16663;DHT22;8445;51.270;9.434;2024-01-06T06:55:14;5.30;77.00
16663;DHT22;8445;51.270;9.434;2024-01-06T06:57:40;5.30;76.90
16663;DHT22;8445;51.270;9.434;2024-01-06T07:00:06;5.30;76.90
16663;DHT22;8445;51.270;9.434;2024-01-06T07:02:35;5.30;77.00
16663;DHT22;8445;51.270;9.434;2024-01-06T07:05:04;5.30;76.90
16663;DHT22;8445;51.270;9.434;2024-01-06T07:07:33;5.30;76.90
16663;DHT22;8445;51.270;9.434;2024-01-06T07:10:01;5.30;77.00
16663;DHT22;8445;51.270;9.434;2024-01-06T07:12:29;5.30;77.00
16663;DHT22;8445;51.270;9.434;2024-01-06T07:14:54;5.30;76.90
16663;DHT22;8445;51.270;9.434;2024-01-06T07:17:20;5.30;76.90
16663;DHT22;8445;51.270;9.434;2024-01-06T07:19:47;5.30;77.00
16663;DHT22;8445;51.270;9.434;2024-01-06T07:22:14;5.30;76.90
16663;DHT22;8445;51.270;9.434;2024-01-06T07:24:42;5.30;76.90
16663;DHT22;8445;51.270;9.434;2024-01-06T07:27:07;5.30;76.90
16663;DHT22;8445;51.270;9.434;2024-01-06T07:29:33;5.30;76.90
16663;DHT22;8445;51.270;9.434;2024-01-06T07:31:59;5.30;76.90
16663;DHT22;8445;51.270;9.434;2024-01-06T07:34:25;5.30;76.90
16663;DHT22;8445;51.270;9.434;2024-01-06T07:36:51;5.30;76.90
16663;DHT22;8445;51.270;9.434;2024-01-06T07:39:20;5.30;76.90
16663;DHT22;8445;51.270;9.434;2024-01-06T07:41:46;5.40;76.90
16663;DHT22;8445;51.270;9.434;2024-01-06T07:44:12;5.50;76.90
16663;DHT22;8445;51.270;9.434;2024-01-06T07:46:39;5.50;76.90
16663;DHT22;8445;51.270;9.434;2024-01-06T07:49:08;5.50;76.90
16663;DHT22;8445;51.270;9.434;2024-01-06T07:51:33;5.50;76.80
16663;DHT22;8445;51.270;9.434;2024-01-06T07:54:01;5.50;76.80
16663;DHT22;8445;51.270;9.434;2024-01-06T07:56:27;5.50;76.90
16663;DHT22;8445;51.270;9.434;2024-01-06T07:58:53;5.60;76.90
16663;DHT22;8445;51.270;9.434;2024-01-06T08:01:18;5.60;76.90
16663;DHT22;8445;51.270;9.434;2024-01-06T08:03:47;5.70;76.80
16663;DHT22;8445;51.270;9.434;2024-01-06T08:06:13;5.70;76.80
16663;DHT22;8445;51.270;9.434;2024-01-06T08:08:38;5.70;76.80
16663;DHT22;8445;51.270;9.434;2024-01-06T08:11:04;5.80;76.80
16663;DHT22;8445;51.270;9.434;2024-01-06T08:13:30;5.80;76.80
16663;DHT22;8445;51.270;9.434;2024-01-06T08:15:56;5.80;76.70
16663;DHT22;8445;51.270;9.434;2024-01-06T08:18:22;5.90;76.60
16663;DHT22;8445;51.270;9.434;2024-01-06T08:20:47;5.90;76.60
16663;DHT22;8445;51.270;9.434;2024-01-06T08:23:13;5.90;76.60
16663;DHT22;8445;51.270;9.434;2024-01-06T08:25:39;6.00;76.50
16663;DHT22;8445;51.270;9.434;2024-01-06T08:28:05;5.90;76.40
16663;DHT22;8445;51.270;9.434;2024-01-06T08:30:33;6.00;76.40
16663;DHT22;8445;51.270;9.434;2024-01-06T08:32:59;6.00;76.50
16663;DHT22;8445;51.270;9.434;2024-01-06T08:35:25;6.00;76.40
16663;DHT22;8445;51.270;9.434;2024-01-06T08:37:51;6.00;76.40
16663;DHT22;8445;51.270;9.434;2024-01-06T08:40:16;6.00;76.40
16663;DHT22;8445;51.270;9.434;2024-01-06T08:42:43;6.00;76.40
16663;DHT22;8445;51.270;9.434;2024-01-06T08:45:09;6.00;76.50
16663;DHT22;8445;51.270;9.434;2024-01-06T08:47:35;6.00;76.50
16663;DHT22;8445;51.270;9.434;2024-01-06T08:50:01;6.10;76.50
16663;DHT22;8445;51.270;9.434;2024-01-06T08:52:27;6.10;76.50
16663;DHT22;8445;51.270;9.434;2024-01-06T08:54:53;6.10;76.50
16663;DHT22;8445;51.270;9.434;2024-01-06T08:57:19;6.20;76.50
16663;DHT22;8445;51.270;9.434;2024-01-06T08:59:45;6.20;76.50
16663;DHT22;8445;51.270;9.434;2024-01-06T09:02:11;6.20;76.60
16663;DHT22;8445;51.270;9.434;2024-01-06T09:04:37;6.30;76.50
16663;DHT22;8445;51.270;9.434;2024-01-06T09:07:03;6.30;76.50
16663;DHT22;8445;51.270;9.434;2024-01-06T09:09:29;6.30;76.40
16663;DHT22;8445;51.270;9.434;2024-01-06T09:11:55;6.40;76.30
16663;DHT22;8445;51.270;9.434;2024-01-06T09:14:21;6.40;76.30
16663;DHT22;8445;51.270;9.434;2024-01-06T09:16:47;6.40;76.30
16663;DHT22;8445;51.270;9.434;2024-01-06T09:19:13;6.50;76.20
16663;DHT22;8445;51.270;9.434;2024-01-06T09:21:39;6.50;76.10
16663;DHT22;8445;51.270;9.434;2024-01-06T09:24:07;6.50;76.10
16663;DHT22;8445;51.270;9.434;2024-01-06T09:26:33;6.50;76.00
16663;DHT22;8445;51.270;9.434;2024-01-06T09:29:00;6.50;75.90
16663;DHT22;8445;51.270;9.434;2024-01-06T09:31:27;6.50;76.00
16663;DHT22;8445;51.270;9.434;2024-01-06T09:33:53;6.50;75.90
16663;DHT22;8445;51.270;9.434;2024-01-06T09:36:24;6.50;75.90
16663;DHT22;8445;51.270;9.434;2024-01-06T09:38:50;6.60;75.80
16663;DHT22;8445;51.270;9.434;2024-01-06T09:41:16;6.60;75.70
16663;DHT22;8445;51.270;9.434;2024-01-06T09:43:42;6.60;75.60
16663;DHT22;8445;51.270;9.434;2024-01-06T09:48:46;6.60;75.50
16663;DHT22;8445;51.270;9.434;2024-01-06T09:51:15;6.60;75.50
16663;DHT22;8445;51.270;9.434;2024-01-06T09:54:00;6.60;75.50
16663;DHT22;8445;51.270;9.434;2024-01-06T09:56:28;6.60;75.50
16663;DHT22;8445;51.270;9.434;2024-01-06T09:59:00;6.60;75.60
16663;DHT22;8445;51.270;9.434;2024-01-06T10:01:26;6.70;75.50
16663;DHT22;8445;51.270;9.434;2024-01-06T10:03:52;6.60;75.50
16663;DHT22;8445;51.270;9.434;2024-01-06T10:06:18;6.70;75.60
16663;DHT22;8445;51.270;9.434;2024-01-06T10:08:50;6.70;75.50
16663;DHT22;8445;51.270;9.434;2024-01-06T10:11:18;6.70;75.60
16663;DHT22;8445;51.270;9.434;2024-01-06T10:13:44;6.70;75.50
16663;DHT22;8445;51.270;9.434;2024-01-06T10:16:10;6.70;75.40
16663;DHT22;8445;51.270;9.434;2024-01-06T10:18:36;6.70;75.30
16663;DHT22;8445;51.270;9.434;2024-01-06T10:21:05;6.70;75.30
16663;DHT22;8445;51.270;9.434;2024-01-06T10:23:34;6.70;75.30
16663;DHT22;8445;51.270;9.434;2024-01-06T10:26:00;6.70;75.30
16663;DHT22;8445;51.270;9.434;2024-01-06T10:28:26;6.80;75.30
16663;DHT22;8445;51.270;9.434;2024-01-06T10:30:53;6.80;75.30
16663;DHT22;8445;51.270;9.434;2024-01-06T10:33:24;6.80;75.30
16663;DHT22;8445;51.270;9.434;2024-01-06T10:35:52;6.80;75.20
16663;DHT22;8445;51.270;9.434;2024-01-06T10:38:22;6.90;75.20
16663;DHT22;8445;51.270;9.434;2024-01-06T10:43:27;6.90;75.00
16663;DHT22;8445;51.270;9.434;2024-01-06T10:45:56;7.00;75.00
16663;DHT22;8445;51.270;9.434;2024-01-06T10:48:27;7.00;75.00
16663;DHT22;8445;51.270;9.434;2024-01-06T10:50:59;7.00;75.00
16663;DHT22;8445;51.270;9.434;2024-01-06T10:53:27;7.00;74.90
16663;DHT22;8445;51.270;9.434;2024-01-06T10:55:57;7.10;74.80
16663;DHT22;8445;51.270;9.434;2024-01-06T10:58:23;7.10;74.60
16663;DHT22;8445;51.270;9.434;2024-01-06T11:00:49;7.00;74.70
16663;DHT22;8445;51.270;9.434;2024-01-06T11:03:17;7.10;74.60
16663;DHT22;8445;51.270;9.434;2024-01-06T11:05:46;7.00;74.60
16663;DHT22;8445;51.270;9.434;2024-01-06T11:08:12;7.00;74.70
16663;DHT22;8445;51.270;9.434;2024-01-06T11:10:39;7.10;74.60
16663;DHT22;8445;51.270;9.434;2024-01-06T11:13:10;7.10;74.60
16663;DHT22;8445;51.270;9.434;2024-01-06T11:15:44;7.20;74.80
16663;DHT22;8445;51.270;9.434;2024-01-06T11:18:37;7.20;74.60
16663;DHT22;8445;51.270;9.434;2024-01-06T11:21:18;7.20;74.30
16663;DHT22;8445;51.270;9.434;2024-01-06T11:24:18;7.30;74.20
16663;DHT22;8445;51.270;9.434;2024-01-06T11:26:51;7.20;74.10
16663;DHT22;8445;51.270;9.434;2024-01-06T11:29:20;7.20;74.10
16663;DHT22;8445;51.270;9.434;2024-01-06T11:32:18;7.20;74.20
16663;DHT22;8445;51.270;9.434;2024-01-06T11:34:50;7.20;74.30
16663;DHT22;8445;51.270;9.434;2024-01-06T11:37:53;7.20;74.30
16663;DHT22;8445;51.270;9.434;2024-01-06T11:43:10;7.20;74.40
16663;DHT22;8445;51.270;9.434;2024-01-06T11:45:42;7.20;74.20
16663;DHT22;8445;51.270;9.434;2024-01-06T11:48:09;7.20;74.20
16663;DHT22;8445;51.270;9.434;2024-01-06T11:50:39;7.20;74.30
16663;DHT22;8445;51.270;9.434;2024-01-06T11:53:07;7.20;74.10
16663;DHT22;8445;51.270;9.434;2024-01-06T11:55:42;7.20;74.10
16663;DHT22;8445;51.270;9.434;2024-01-06T11:58:08;7.20;74.10
16663;DHT22;8445;51.270;9.434;2024-01-06T12:00:35;7.30;74.00
16663;DHT22;8445;51.270;9.434;2024-01-06T12:03:05;7.40;73.90
16663;DHT22;8445;51.270;9.434;2024-01-06T12:05:31;7.40;74.00
16663;DHT22;8445;51.270;9.434;2024-01-06T12:08:01;7.40;73.90
16663;DHT22;8445;51.270;9.434;2024-01-06T12:10:30;7.40;73.90
16663;DHT22;8445;51.270;9.434;2024-01-06T12:13:02;7.50;73.90
16663;DHT22;8445;51.270;9.434;2024-01-06T12:15:32;7.40;73.90
16663;DHT22;8445;51.270;9.434;2024-01-06T12:17:58;7.40;73.80
16663;DHT22;8445;51.270;9.434;2024-01-06T12:20:26;7.40;73.80
16663;DHT22;8445;51.270;9.434;2024-01-06T12:22:54;7.40;73.70
16663;DHT22;8445;51.270;9.434;2024-01-06T12:25:22;7.40;73.60
16663;DHT22;8445;51.270;9.434;2024-01-06T12:27:49;7.20;73.70
16663;DHT22;8445;51.270;9.434;2024-01-06T12:30:20;7.20;73.80
16663;DHT22;8445;51.270;9.434;2024-01-06T12:32:50;7.20;73.70
16663;DHT22;8445;51.270;9.434;2024-01-06T12:35:17;7.20;73.80
16663;DHT22;8445;51.270;9.434;2024-01-06T12:37:44;7.20;73.80
16663;DHT22;8445;51.270;9.434;2024-01-06T12:40:12;7.20;73.90
16663;DHT22;8445;51.270;9.434;2024-01-06T12:42:39;7.20;73.90
16663;DHT22;8445;51.270;9.434;2024-01-06T12:45:08;7.20;73.90
16663;DHT22;8445;51.270;9.434;2024-01-06T12:47:35;7.20;73.90
16663;DHT22;8445;51.270;9.434;2024-01-06T12:50:05;7.20;73.90
16663;DHT22;8445;51.270;9.434;2024-01-06T12:52:31;7.20;73.90
16663;DHT22;8445;51.270;9.434;2024-01-06T12:54:59;7.20;74.00
16663;DHT22;8445;51.270;9.434;2024-01-06T12:57:25;7.20;74.00
16663;DHT22;8445;51.270;9.434;2024-01-06T12:59:51;7.20;74.10
16663;DHT22;8445;51.270;9.434;2024-01-06T13:02:17;7.20;74.10
16663;DHT22;8445;51.270;9.434;2024-01-06T13:04:43;7.20;74.20
16663;DHT22;8445;51.270;9.434;2024-01-06T13:07:09;7.20;74.20
16663;DHT22;8445;51.270;9.434;2024-01-06T13:09:35;7.20;74.20
16663;DHT22;8445;51.270;9.434;2024-01-06T13:12:01;7.20;74.10
16663;DHT22;8445;51.270;9.434;2024-01-06T13:14:28;7.10;74.00
16663;DHT22;8445;51.270;9.434;2024-01-06T13:16:55;7.00;73.80
16663;DHT22;8445;51.270;9.434;2024-01-06T13:19:22;7.00;73.80
16663;DHT22;8445;51.270;9.434;2024-01-06T13:21:49;6.80;73.90
16663;DHT22;8445;51.270;9.434;2024-01-06T13:24:18;6.60;74.10
16663;DHT22;8445;51.270;9.434;2024-01-06T13:26:44;6.50;74.00
16663;DHT22;8445;51.270;9.434;2024-01-06T13:29:10;6.50;74.20
16663;DHT22;8445;51.270;9.434;2024-01-06T13:31:36;6.40;74.80
16663;DHT22;8445;51.270;9.434;2024-01-06T13:34:02;6.40;74.90
16663;DHT22;8445;51.270;9.434;2024-01-06T13:36:28;6.40;74.90
16663;DHT22;8445;51.270;9.434;2024-01-06T13:38:54;6.40;74.50
16663;DHT22;8445;51.270;9.434;2024-01-06T13:41:22;6.40;74.60
16663;DHT22;8445;51.270;9.434;2024-01-06T13:43:50;6.40;74.60
16663;DHT22;8445;51.270;9.434;2024-01-06T13:46:20;6.40;74.30
16663;DHT22;8445;51.270;9.434;2024-01-06T13:48:47;6.30;74.40
16663;DHT22;8445;51.270;9.434;2024-01-06T13:51:13;6.30;74.10
16663;DHT22;8445;51.270;9.434;2024-01-06T13:53:39;6.30;74.10
16663;DHT22;8445;51.270;9.434;2024-01-06T13:56:06;6.30;74.00
16663;DHT22;8445;51.270;9.434;2024-01-06T13:58:32;6.30;73.80
16663;DHT22;8445;51.270;9.434;2024-01-06T14:01:02;6.30;73.60
16663;DHT22;8445;51.270;9.434;2024-01-06T14:03:31;6.30;73.30
16663;DHT22;8445;51.270;9.434;2024-01-06T14:05:58;6.30;73.20
16663;DHT22;8445;51.270;9.434;2024-01-06T14:08:24;6.20;73.30
16663;DHT22;8445;51.270;9.434;2024-01-06T14:10:50;6.20;73.40
16663;DHT22;8445;51.270;9.434;2024-01-06T14:13:16;6.20;73.60
16663;DHT22;8445;51.270;9.434;2024-01-06T14:15:42;6.20;73.50
16663;DHT22;8445;51.270;9.434;2024-01-06T14:18:09;6.20;73.10
16663;DHT22;8445;51.270;9.434;2024-01-06T14:20:37;6.20;73.00
16663;DHT22;8445;51.270;9.434;2024-01-06T14:23:15;6.10;73.00
16663;DHT22;8445;51.270;9.434;2024-01-06T14:25:50;6.10;73.20
16663;DHT22;8445;51.270;9.434;2024-01-06T14:28:19;6.00;73.20
16663;DHT22;8445;51.270;9.434;2024-01-06T14:30:50;6.00;73.20
16663;DHT22;8445;51.270;9.434;2024-01-06T14:33:23;5.90;73.20
16663;DHT22;8445;51.270;9.434;2024-01-06T14:35:57;5.90;73.30
16663;DHT22;8445;51.270;9.434;2024-01-06T14:38:29;5.90;73.40
16663;DHT22;8445;51.270;9.434;2024-01-06T14:40:57;5.80;73.50
16663;DHT22;8445;51.270;9.434;2024-01-06T14:43:37;5.80;73.60
16663;DHT22;8445;51.270;9.434;2024-01-06T14:46:14;5.70;73.80
16663;DHT22;8445;51.270;9.434;2024-01-06T14:48:41;5.70;74.10
16663;DHT22;8445;51.270;9.434;2024-01-06T14:51:07;5.70;74.00
16663;DHT22;8445;51.270;9.434;2024-01-06T14:53:33;5.60;74.40
16663;DHT22;8445;51.270;9.434;2024-01-06T14:56:07;5.60;74.50
16663;DHT22;8445;51.270;9.434;2024-01-06T14:58:36;5.50;74.80
16663;DHT22;8445;51.270;9.434;2024-01-06T15:01:06;5.50;75.20
16663;DHT22;8445;51.270;9.434;2024-01-06T15:03:36;5.50;75.40
16663;DHT22;8445;51.270;9.434;2024-01-06T15:06:04;5.50;75.50
16663;DHT22;8445;51.270;9.434;2024-01-06T15:08:30;5.50;75.50
16663;DHT22;8445;51.270;9.434;2024-01-06T15:10:56;5.50;75.70
16663;DHT22;8445;51.270;9.434;2024-01-06T15:13:24;5.40;76.00
16663;DHT22;8445;51.270;9.434;2024-01-06T15:15:52;5.30;76.10
16663;DHT22;8445;51.270;9.434;2024-01-06T15:18:19;5.30;76.50
16663;DHT22;8445;51.270;9.434;2024-01-06T15:20:49;5.30;76.80
16663;DHT22;8445;51.270;9.434;2024-01-06T15:23:15;5.20;77.20
16663;DHT22;8445;51.270;9.434;2024-01-06T15:25:44;5.10;77.50
16663;DHT22;8445;51.270;9.434;2024-01-06T15:28:10;5.10;77.70
16663;DHT22;8445;51.270;9.434;2024-01-06T15:30:36;5.10;78.50
16663;DHT22;8445;51.270;9.434;2024-01-06T15:33:02;5.00;78.30
16663;DHT22;8445;51.270;9.434;2024-01-06T15:35:28;5.00;79.10
16663;DHT22;8445;51.270;9.434;2024-01-06T15:37:54;5.00;79.10
16663;DHT22;8445;51.270;9.434;2024-01-06T15:40:20;4.90;79.50
16663;DHT22;8445;51.270;9.434;2024-01-06T15:42:49;4.90;80.00
16663;DHT22;8445;51.270;9.434;2024-01-06T15:45:15;4.90;80.10
16663;DHT22;8445;51.270;9.434;2024-01-06T15:47:46;4.90;80.40
16663;DHT22;8445;51.270;9.434;2024-01-06T15:50:15;4.90;80.50
16663;DHT22;8445;51.270;9.434;2024-01-06T15:52:41;4.80;80.40
16663;DHT22;8445;51.270;9.434;2024-01-06T15:55:09;4.70;80.70
16663;DHT22;8445;51.270;9.434;2024-01-06T15:57:35;4.70;80.80
16663;DHT22;8445;51.270;9.434;2024-01-06T16:00:01;4.70;80.80
16663;DHT22;8445;51.270;9.434;2024-01-06T16:02:39;4.70;81.00
16663;DHT22;8445;51.270;9.434;2024-01-06T16:05:07;4.70;80.90
16663;DHT22;8445;51.270;9.434;2024-01-06T16:07:33;4.70;80.90
16663;DHT22;8445;51.270;9.434;2024-01-06T16:09:59;4.70;81.00
16663;DHT22;8445;51.270;9.434;2024-01-06T16:12:25;4.70;81.00